createdAt,value
2022-12-17T00:01:23.019Z,19.85
2022-12-17T00:04:08.551Z,21.38
2022-12-17T00:06:56.457Z,21.80
2022-12-17T00:09:45.726Z,22.20
2022-12-17T00:12:33.995Z,20.92
2022-12-17T00:15:19.633Z,21.15
2022-12-17T00:18:05.039Z,21.40
2022-12-17T00:20:50.598Z,23.27
2022-12-17T00:23:36.197Z,24.25
2022-12-17T00:26:22.001Z,23.40
2022-12-17T00:29:16.883Z,21.42
2022-12-17T00:32:02.540Z,23.13
2022-12-17T00:34:47.723Z,21.33
2022-12-17T00:37:37.849Z,24.35
2022-12-17T00:40:24.000Z,23.38
2022-12-17T00:43:26.677Z,21.08
2022-12-17T00:46:12.446Z,20.45
2022-12-17T00:48:57.846Z,19.02
2022-12-17T00:51:44.246Z,19.83
2022-12-17T00:54:30.571Z,20.63
2022-12-17T00:57:17.247Z,22.30
2022-12-17T01:00:05.994Z,22.38
2022-12-17T01:02:51.745Z,39.40
2022-12-17T01:05:37.422Z,36.95
2022-12-17T01:08:31.591Z,40.15
2022-12-17T01:11:22.361Z,29.55
2022-12-17T01:17:12.765Z,21.73
2022-12-17T01:19:57.950Z,21.25
2022-12-17T01:22:43.295Z,22.90
2022-12-17T01:25:29.580Z,24.10
2022-12-17T01:28:14.816Z,19.55
2022-12-17T01:31:00.249Z,19.20
2022-12-17T01:33:45.449Z,18.55
2022-12-17T01:36:33.525Z,22.33
2022-12-17T01:39:19.053Z,19.48
2022-12-17T01:42:05.233Z,18.50
2022-12-17T01:45:10.278Z,18.75
2022-12-17T01:48:03.164Z,18.02
2022-12-17T01:50:51.713Z,19.48
2022-12-17T01:53:43.378Z,17.77
2022-12-17T01:56:30.065Z,19.40
2022-12-17T01:59:16.952Z,19.67
2022-12-17T02:02:07.762Z,20.20
2022-12-17T02:04:53.593Z,19.23
2022-12-17T02:07:56.754Z,18.85
2022-12-17T02:11:04.025Z,19.52
2022-12-17T02:13:58.631Z,20.48
2022-12-17T02:16:52.180Z,19.95
2022-12-17T02:20:31.471Z,20.88
2022-12-17T02:23:59.992Z,20.10
2022-12-17T02:31:02.736Z,17.48
2022-12-17T02:41:04.852Z,16.90
2022-12-17T02:43:52.786Z,19.02
2022-12-17T02:46:41.265Z,16.95
2022-12-17T02:49:26.878Z,18.60
2022-12-17T02:52:13.531Z,19.27
2022-12-17T02:54:58.730Z,17.10
2022-12-17T02:57:53.961Z,18.55
2022-12-17T03:00:42.232Z,17.50
2022-12-17T03:03:27.971Z,18.02
2022-12-17T03:06:13.395Z,19.55
2022-12-17T03:09:00.412Z,19.70
2022-12-17T03:15:20.653Z,18.73
2022-12-17T03:18:44.419Z,19.95
2022-12-17T03:21:30.320Z,18.15
2022-12-17T03:24:21.710Z,19.05
2022-12-17T03:27:13.590Z,20.00
2022-12-17T03:30:20.593Z,18.10
2022-12-17T03:33:06.216Z,18.25
2022-12-17T03:35:51.910Z,19.02
2022-12-17T03:38:37.284Z,19.23
2022-12-17T03:41:22.473Z,18.52
2022-12-17T03:44:07.803Z,19.83
2022-12-17T03:46:53.100Z,20.00
2022-12-17T03:49:38.409Z,18.85
2022-12-17T03:52:23.830Z,18.83
2022-12-17T03:55:09.053Z,19.40
2022-12-17T03:58:26.814Z,19.10
2022-12-17T04:01:15.439Z,20.65
2022-12-17T04:04:00.736Z,21.48
2022-12-17T04:06:47.686Z,20.52
2022-12-17T04:09:33.609Z,21.98
2022-12-17T04:12:19.164Z,21.90
2022-12-17T04:15:04.681Z,22.20
2022-12-17T04:17:49.922Z,19.40
2022-12-17T04:20:35.197Z,19.85
2022-12-17T04:23:21.020Z,21.45
2022-12-17T04:26:10.652Z,21.38
2022-12-17T04:29:21.729Z,21.17
2022-12-17T04:32:34.891Z,21.50
2022-12-17T04:35:45.109Z,21.83
2022-12-17T04:38:52.608Z,21.10
2022-12-17T04:45:51.772Z,20.55
2022-12-17T04:49:03.139Z,22.23
2022-12-17T04:52:03.485Z,23.63
2022-12-17T04:54:49.024Z,22.00
2022-12-17T04:58:06.067Z,22.27
2022-12-17T05:00:55.711Z,23.13
2022-12-17T05:06:59.883Z,21.85
2022-12-17T05:10:41.357Z,20.98
2022-12-17T05:13:35.934Z,20.80
2022-12-17T05:16:24.972Z,20.33
2022-12-17T05:19:13.717Z,21.08
2022-12-17T05:22:02.859Z,22.00
2022-12-17T05:24:48.293Z,20.25
2022-12-17T05:27:33.753Z,21.50
2022-12-17T05:30:19.319Z,20.48
2022-12-17T05:33:04.511Z,20.52
2022-12-17T05:35:52.653Z,18.35
2022-12-17T05:46:52.479Z,21.15
2022-12-17T05:49:42.204Z,20.52
2022-12-17T05:52:27.807Z,19.40
2022-12-17T05:55:25.280Z,20.75
2022-12-17T05:58:41.855Z,24.98
2022-12-17T06:01:27.629Z,23.65
2022-12-17T06:04:18.757Z,20.30
2022-12-17T06:07:27.692Z,20.75
2022-12-17T06:10:12.939Z,20.02
2022-12-17T06:12:58.697Z,19.73
2022-12-17T06:15:49.788Z,20.45
2022-12-17T06:18:41.094Z,20.63
2022-12-17T06:21:26.215Z,23.38
2022-12-17T06:24:12.214Z,24.20
2022-12-17T06:27:11.793Z,24.08
2022-12-17T06:29:57.345Z,25.10
2022-12-17T06:32:42.799Z,25.02
2022-12-17T06:35:35.912Z,21.80
2022-12-17T06:43:18.052Z,23.67
2022-12-17T06:46:26.378Z,22.40
2022-12-17T06:49:17.845Z,22.15
2022-12-17T06:52:03.353Z,22.10
2022-12-17T06:54:54.772Z,20.70
2022-12-17T06:57:47.495Z,22.55
2022-12-17T07:07:40.491Z,23.17
2022-12-17T07:10:44.531Z,24.27
2022-12-17T07:13:41.890Z,22.15
2022-12-17T07:16:30.591Z,24.52
2022-12-17T07:19:16.405Z,23.05
2022-12-17T07:22:01.957Z,23.23
2022-12-17T07:25:45.974Z,22.13
2022-12-17T07:29:07.394Z,22.13
2022-12-17T07:31:54.427Z,22.40
2022-12-17T07:35:15.411Z,21.95
2022-12-17T07:38:01.126Z,22.00
2022-12-17T07:40:58.616Z,21.60
2022-12-17T07:43:52.777Z,21.33
2022-12-17T07:47:13.921Z,21.30
2022-12-17T07:50:24.265Z,20.20
2022-12-17T07:53:22.697Z,21.13
2022-12-17T08:08:51.737Z,19.05
2022-12-17T08:09:27.678Z,19.48
2022-12-17T08:11:37.177Z,18.30
2022-12-17T08:14:22.931Z,20.48
2022-12-17T08:17:08.198Z,21.20
2022-12-17T08:20:02.959Z,20.35
2022-12-17T08:23:05.042Z,20.75
2022-12-17T08:25:53.561Z,18.92
2022-12-17T08:39:29.694Z,20.35
2022-12-17T08:42:17.586Z,22.25
2022-12-17T08:45:03.655Z,21.98
2022-12-17T08:47:49.059Z,22.20
2022-12-17T08:50:37.456Z,28.10
2022-12-17T08:53:23.338Z,22.13
2022-12-17T08:56:09.038Z,22.63
2022-12-17T08:59:19.057Z,20.20
2022-12-17T09:02:14.246Z,20.67
2022-12-17T09:04:59.438Z,21.48
2022-12-17T09:07:44.694Z,21.15
2022-12-17T09:10:30.020Z,22.15
2022-12-17T09:13:19.080Z,22.00
2022-12-17T09:16:10.703Z,20.48
2022-12-17T09:18:56.078Z,19.85
2022-12-17T09:21:42.493Z,19.65
2022-12-17T09:24:28.866Z,20.42
2022-12-17T09:27:14.245Z,22.08
2022-12-17T09:29:59.762Z,21.38
2022-12-17T09:32:46.021Z,21.52
2022-12-17T09:35:31.344Z,20.73
2022-12-17T09:38:16.910Z,19.70
2022-12-17T09:41:06.954Z,19.50
2022-12-17T09:44:06.600Z,18.52
2022-12-17T09:47:03.671Z,20.80
2022-12-17T09:49:49.018Z,19.35
2022-12-17T09:52:48.763Z,20.58
2022-12-17T09:55:51.756Z,20.42
2022-12-17T09:58:43.350Z,20.17
2022-12-17T10:01:38.621Z,19.98
2022-12-17T10:04:33.174Z,20.15
2022-12-17T10:07:20.158Z,19.20
2022-12-17T10:10:09.260Z,19.08
2022-12-17T10:12:55.771Z,18.27
2022-12-17T10:15:41.288Z,18.80
2022-12-17T10:18:37.558Z,20.40
2022-12-17T10:21:26.701Z,19.63
2022-12-17T10:24:28.776Z,18.90
2022-12-17T10:27:14.651Z,19.45
2022-12-17T10:30:02.625Z,19.00
2022-12-17T10:32:48.416Z,19.60
2022-12-17T10:35:41.002Z,18.42
2022-12-17T10:38:56.579Z,19.40
2022-12-17T10:41:53.223Z,20.75
2022-12-17T10:44:53.870Z,19.23
2022-12-17T10:47:42.341Z,21.17
2022-12-17T10:50:36.289Z,19.25
2022-12-17T10:53:23.428Z,20.30
2022-12-17T10:56:11.521Z,19.33
2022-12-17T10:59:04.699Z,19.35
2022-12-17T11:01:51.096Z,20.60
2022-12-17T11:04:51.973Z,20.60
2022-12-17T11:07:46.327Z,19.67
2022-12-17T11:10:43.812Z,18.55
2022-12-17T11:14:05.306Z,21.05
2022-12-17T11:16:55.356Z,20.88
2022-12-17T11:20:01.831Z,20.67
2022-12-17T11:23:05.775Z,19.73
2022-12-17T11:25:50.756Z,19.50
2022-12-17T11:28:47.173Z,20.23
2022-12-17T11:31:46.646Z,21.00
2022-12-17T11:35:09.007Z,19.48
2022-12-17T11:38:16.799Z,19.30
2022-12-17T11:41:06.043Z,20.65
2022-12-17T11:44:22.958Z,20.42
2022-12-17T11:47:23.254Z,19.75
2022-12-17T11:50:20.410Z,20.23
2022-12-17T11:53:28.217Z,20.23
2022-12-17T11:56:28.632Z,21.25
2022-12-17T11:59:52.853Z,19.80
2022-12-17T12:02:47.781Z,19.02
2022-12-17T12:05:53.436Z,19.60
2022-12-17T12:09:03.355Z,21.23
2022-12-17T12:12:23.964Z,22.77
2022-12-17T12:15:41.563Z,19.98
2022-12-17T12:18:48.313Z,22.42
2022-12-17T12:21:52.286Z,22.02
2022-12-17T12:24:58.030Z,21.27
2022-12-17T12:28:14.786Z,22.13
2022-12-17T12:31:12.555Z,21.73
2022-12-17T12:34:11.501Z,21.13
2022-12-17T12:36:59.277Z,21.75
2022-12-17T12:39:53.478Z,22.73
2022-12-17T12:42:46.550Z,22.15
2022-12-17T12:45:54.607Z,21.55
2022-12-17T12:48:47.561Z,22.00
2022-12-17T12:51:41.426Z,23.25
2022-12-17T12:55:08.426Z,23.00
2022-12-17T12:58:14.525Z,23.50
2022-12-17T13:01:06.054Z,21.70
2022-12-17T13:04:02.644Z,22.95
2022-12-17T13:06:57.210Z,20.30
2022-12-17T13:09:32.282Z,21.92
2022-12-17T13:12:00.748Z,22.98
2022-12-17T13:14:42.624Z,21.90
2022-12-17T13:17:27.016Z,21.65
2022-12-17T13:20:32.677Z,22.65
2022-12-17T13:23:16.432Z,23.17
2022-12-17T13:25:43.927Z,25.30
2022-12-17T13:28:31.113Z,22.30
2022-12-17T13:31:06.947Z,23.80
2022-12-17T13:33:45.886Z,24.80
2022-12-17T13:36:20.742Z,24.27
2022-12-17T13:38:54.320Z,27.33
2022-12-17T13:41:27.731Z,25.65
2022-12-17T13:44:01.708Z,23.35
2022-12-17T13:46:36.212Z,25.40
2022-12-17T13:49:06.254Z,25.00
2022-12-17T13:51:36.534Z,24.50
2022-12-17T13:54:05.698Z,24.52
2022-12-17T13:56:37.487Z,26.88
2022-12-17T13:59:09.399Z,25.10
2022-12-17T14:01:45.941Z,23.65
2022-12-17T14:04:24.656Z,24.92
2022-12-17T14:06:58.266Z,24.60
2022-12-17T14:09:33.774Z,26.38
2022-12-17T14:12:22.254Z,25.70
2022-12-17T14:14:51.135Z,26.17
2022-12-17T14:17:20.894Z,26.17
2022-12-17T14:19:52.658Z,25.50
2022-12-17T14:22:35.721Z,27.25
2022-12-17T14:25:05.081Z,25.70
2022-12-17T14:27:36.709Z,27.05
2022-12-17T14:30:19.879Z,25.13
2022-12-17T14:32:50.084Z,30.05
2022-12-17T14:35:35.107Z,27.90
2022-12-17T14:38:02.191Z,28.70
2022-12-17T14:40:29.661Z,27.67
2022-12-17T14:43:01.376Z,28.63
2022-12-17T14:45:29.385Z,28.27
2022-12-17T14:48:00.736Z,29.70
2022-12-17T14:50:36.505Z,27.40
2022-12-17T14:53:23.896Z,28.10
2022-12-17T14:55:57.608Z,26.60
2022-12-17T14:58:26.153Z,27.23
2022-12-17T15:01:05.958Z,25.30
2022-12-17T15:04:01.336Z,28.88
2022-12-17T15:06:28.545Z,27.38
2022-12-17T15:08:55.685Z,27.33
2022-12-17T15:11:23.549Z,26.63
2022-12-17T15:13:56.058Z,25.40
2022-12-17T15:16:23.687Z,28.40
2022-12-17T15:18:50.950Z,27.90
2022-12-17T15:21:19.439Z,27.52
2022-12-17T15:23:47.534Z,27.17
2022-12-17T15:26:15.412Z,27.63
2022-12-17T15:28:43.606Z,29.05
2022-12-17T15:31:13.162Z,28.67
2022-12-17T15:33:41.007Z,29.88
2022-12-17T15:36:11.983Z,28.73
2022-12-17T15:38:42.356Z,30.08
2022-12-17T15:41:31.179Z,33.50
2022-12-17T15:43:58.037Z,32.65
2022-12-17T15:46:25.244Z,33.05
2022-12-17T15:48:58.724Z,30.23
2022-12-17T15:51:28.892Z,27.98
2022-12-17T15:53:55.941Z,33.38
2022-12-17T15:56:25.049Z,30.27
2022-12-17T15:58:52.220Z,32.70
2022-12-17T16:01:19.827Z,33.05
2022-12-17T16:03:46.716Z,31.77
2022-12-17T16:06:13.596Z,26.90
2022-12-17T16:08:40.672Z,29.60
2022-12-17T16:11:13.079Z,30.60
2022-12-17T16:13:40.327Z,28.98
2022-12-17T16:16:07.997Z,28.58
2022-12-17T16:18:38.737Z,28.92
2022-12-17T16:21:07.725Z,29.23
2022-12-17T16:23:35.346Z,41.22
2022-12-17T16:26:04.184Z,43.47
2022-12-17T16:28:31.335Z,55.35
2022-12-17T16:31:03.412Z,35.53
2022-12-17T16:33:35.885Z,32.92
2022-12-17T16:36:06.026Z,40.60
2022-12-17T16:38:33.369Z,41.45
2022-12-17T16:41:03.027Z,38.33
2022-12-17T16:43:33.892Z,39.42
2022-12-17T16:46:01.197Z,38.03
2022-12-17T16:48:28.151Z,38.33
2022-12-17T16:50:55.052Z,34.95
2022-12-17T16:53:22.318Z,35.70
2022-12-17T16:55:50.063Z,39.35
2022-12-17T16:58:18.148Z,34.17
2022-12-17T17:00:46.362Z,37.22
2022-12-17T17:03:13.490Z,37.78
2022-12-17T17:05:40.788Z,37.58
2022-12-17T17:08:07.843Z,37.85
2022-12-17T17:10:36.702Z,36.92
2022-12-17T17:13:04.152Z,41.80
2022-12-17T17:15:31.628Z,38.17
2022-12-17T17:18:01.823Z,39.53
2022-12-17T17:20:32.260Z,38.00
2022-12-17T17:22:59.892Z,37.08
2022-12-17T17:25:43.825Z,41.25
2022-12-17T17:28:13.828Z,40.88
2022-12-17T17:30:40.567Z,40.28
2022-12-17T17:33:07.299Z,42.25
2022-12-17T17:35:34.110Z,42.75
2022-12-17T17:38:01.144Z,36.67
2022-12-17T17:40:27.894Z,36.55
2022-12-17T17:42:54.734Z,38.00
2022-12-17T17:45:21.606Z,37.33
2022-12-17T17:47:48.608Z,35.70
2022-12-17T17:50:16.255Z,38.28
2022-12-17T17:52:43.101Z,36.45
2022-12-17T17:55:09.910Z,36.33
2022-12-17T17:57:36.746Z,38.38
2022-12-17T18:00:04.584Z,35.45
2022-12-17T18:02:31.599Z,36.83
2022-12-17T18:04:58.610Z,35.47
2022-12-17T18:07:26.587Z,37.55
2022-12-17T18:09:55.009Z,35.05
2022-12-17T18:12:43.584Z,36.40
2022-12-17T18:15:15.750Z,38.60
2022-12-17T18:17:45.740Z,39.97
2022-12-17T18:20:13.531Z,39.58
2022-12-17T18:22:40.830Z,41.55
2022-12-17T18:25:11.093Z,45.53
2022-12-17T18:27:41.124Z,47.22
2022-12-17T18:30:08.729Z,39.38
2022-12-17T18:32:35.937Z,42.50
2022-12-17T18:35:02.878Z,43.30
2022-12-17T18:37:30.031Z,40.80
2022-12-17T18:39:56.943Z,39.92
2022-12-17T18:42:42.467Z,43.78
2022-12-17T18:45:09.601Z,42.80
2022-12-17T18:47:37.008Z,46.33
2022-12-17T18:50:04.427Z,41.30
2022-12-17T18:52:31.386Z,39.35
2022-12-17T18:54:58.122Z,41.63
2022-12-17T18:57:24.893Z,44.33
2022-12-17T18:59:54.817Z,47.70
2022-12-17T19:02:21.763Z,42.50
2022-12-17T19:04:48.784Z,45.17
2022-12-17T19:07:15.569Z,44.70
2022-12-17T19:09:42.452Z,41.85
2022-12-17T19:12:10.077Z,41.03
2022-12-17T19:14:37.199Z,41.53
2022-12-17T19:17:06.010Z,44.25
2022-12-17T19:19:33.486Z,43.13
2022-12-17T19:22:00.670Z,42.40
2022-12-17T19:24:28.177Z,41.38
2022-12-17T19:26:55.314Z,42.28
2022-12-17T19:29:22.169Z,44.72
2022-12-17T19:31:49.344Z,45.42
2022-12-17T19:34:18.312Z,44.63
2022-12-17T19:36:46.382Z,46.53
2022-12-17T19:39:16.989Z,39.75
2022-12-17T19:41:43.845Z,40.38
2022-12-17T19:44:25.562Z,41.55
2022-12-17T19:46:52.297Z,42.58
2022-12-17T19:49:19.123Z,43.97
2022-12-17T19:51:46.024Z,41.40
2022-12-17T19:54:15.106Z,36.63
2022-12-17T19:56:43.737Z,37.15
2022-12-17T19:59:11.657Z,38.55
2022-12-17T20:01:48.125Z,35.90
2022-12-17T20:04:16.312Z,34.15
2022-12-17T20:06:43.942Z,38.63
2022-12-17T20:09:11.017Z,35.83
2022-12-17T20:11:38.312Z,35.53
2022-12-17T20:14:10.854Z,38.03
2022-12-17T20:16:40.163Z,39.45
2022-12-17T20:19:10.394Z,38.60
2022-12-17T20:21:37.581Z,35.63
2022-12-17T20:24:04.827Z,36.72
2022-12-17T20:26:31.874Z,35.72
2022-12-17T20:28:59.327Z,37.38
2022-12-17T20:31:28.019Z,38.42
2022-12-17T20:33:54.968Z,37.33
2022-12-17T20:36:25.723Z,33.15
2022-12-17T20:38:52.703Z,32.67
2022-12-17T20:41:22.614Z,37.25
2022-12-17T20:43:50.733Z,35.17
2022-12-17T20:46:19.626Z,37.85
2022-12-17T20:48:46.996Z,35.40
2022-12-17T20:51:22.747Z,36.38
2022-12-17T20:53:50.118Z,36.95
2022-12-17T20:56:20.279Z,34.67
2022-12-17T20:58:47.781Z,33.45
2022-12-17T21:01:19.790Z,34.80
2022-12-17T21:03:49.472Z,33.75
2022-12-17T21:06:25.515Z,33.80
2022-12-17T21:08:53.884Z,35.08
2022-12-17T21:11:26.262Z,32.17
2022-12-17T21:13:53.853Z,31.55
2022-12-17T21:16:29.831Z,37.00
2022-12-17T21:18:58.104Z,34.88
2022-12-17T21:21:29.225Z,37.42
2022-12-17T21:23:56.822Z,34.90
2022-12-17T21:26:26.679Z,35.15
2022-12-17T21:28:56.367Z,37.15
2022-12-17T21:31:27.406Z,38.92
2022-12-17T21:33:57.713Z,38.40
2022-12-17T21:36:27.243Z,37.45
2022-12-17T21:38:54.753Z,38.45
2022-12-17T21:41:27.618Z,36.05
2022-12-17T21:43:56.306Z,37.15
2022-12-17T21:46:24.198Z,38.65
2022-12-17T21:48:53.106Z,37.55
2022-12-17T21:51:20.989Z,37.20
2022-12-17T21:53:51.837Z,37.53
2022-12-17T21:56:19.188Z,36.90
2022-12-17T21:58:47.320Z,38.15
2022-12-17T22:01:21.604Z,39.75
2022-12-17T22:03:54.060Z,42.22
2022-12-17T22:06:27.145Z,36.58
2022-12-17T22:09:06.360Z,36.85
2022-12-17T22:11:39.286Z,33.95
2022-12-17T22:14:09.064Z,35.22
2022-12-17T22:16:43.417Z,40.30
2022-12-17T22:19:13.111Z,35.83
2022-12-17T22:21:45.172Z,35.90
2022-12-17T22:24:20.180Z,38.47
2022-12-17T22:26:47.364Z,34.88
2022-12-17T22:29:37.741Z,35.50
2022-12-17T22:32:25.832Z,35.22
2022-12-17T22:35:37.385Z,34.17
2022-12-17T22:42:13.063Z,34.40
2022-12-17T22:44:29.615Z,33.03
2022-12-17T22:44:44.522Z,31.83
2022-12-17T22:46:19.346Z,29.70
2022-12-17T22:48:47.139Z,30.00
2022-12-17T22:51:16.647Z,32.13
2022-12-17T22:53:52.980Z,27.38
2022-12-17T22:56:42.642Z,26.52
2022-12-17T22:59:08.024Z,26.60
2022-12-17T23:01:35.513Z,27.98
2022-12-17T23:04:03.113Z,30.23
2022-12-17T23:06:29.882Z,30.60
2022-12-17T23:08:56.795Z,30.55
2022-12-17T23:11:26.395Z,30.00
2022-12-17T23:13:54.319Z,32.65
2022-12-17T23:16:21.609Z,31.70
2022-12-17T23:18:50.394Z,31.25
2022-12-17T23:21:23.845Z,33.05
2022-12-17T23:23:52.445Z,31.17
2022-12-17T23:26:22.947Z,31.73
2022-12-17T23:28:58.244Z,28.88
2022-12-17T23:31:26.987Z,27.33
2022-12-17T23:33:54.131Z,29.73
2022-12-17T23:36:22.933Z,33.05
2022-12-17T23:38:50.264Z,30.15
2022-12-17T23:41:20.118Z,30.90
2022-12-17T23:43:48.467Z,30.73
2022-12-17T23:46:17.335Z,31.65
2022-12-17T23:48:46.073Z,31.90
2022-12-17T23:51:14.889Z,28.67
2022-12-17T23:53:42.753Z,27.98
2022-12-17T23:56:16.411Z,28.00
2022-12-17T23:58:44.662Z,28.20
